createdAt,value
2022-10-01T00:02:10.838Z,9.33
2022-10-01T00:04:39.608Z,9.36
2022-10-01T00:07:10.786Z,9.46
2022-10-01T00:09:40.165Z,9.49
2022-10-01T00:12:08.633Z,9.53
2022-10-01T00:14:38.734Z,9.48
2022-10-01T00:17:06.367Z,9.48
2022-10-01T00:19:34.369Z,9.41
2022-10-01T00:22:02.019Z,9.44
2022-10-01T00:24:30.292Z,9.48
2022-10-01T00:27:00.468Z,9.41
2022-10-01T00:29:28.511Z,9.27
2022-10-01T00:31:57.289Z,9.40
2022-10-01T00:34:25.235Z,9.32
2022-10-01T00:36:52.912Z,9.37
2022-10-01T00:39:20.775Z,9.40
2022-10-01T00:41:48.470Z,9.41
2022-10-01T00:44:33.490Z,9.54
2022-10-01T00:47:06.309Z,9.61
2022-10-01T00:49:36.323Z,9.64
2022-10-01T00:52:09.896Z,9.55
2022-10-01T00:54:44.179Z,9.61
2022-10-01T00:57:15.163Z,9.67
2022-10-01T00:59:46.064Z,9.52
2022-10-01T01:02:13.786Z,9.44
2022-10-01T01:04:43.189Z,9.36
2022-10-01T01:07:11.493Z,9.20
2022-10-01T01:09:45.332Z,8.97
2022-10-01T01:12:25.679Z,8.87
2022-10-01T01:15:04.707Z,8.84
2022-10-01T01:17:36.263Z,8.88
2022-10-01T01:20:20.238Z,8.92
2022-10-01T01:22:57.455Z,8.90
2022-10-01T01:25:35.053Z,8.75
2022-10-01T01:28:15.809Z,8.62
2022-10-01T01:30:44.976Z,8.62
2022-10-01T01:33:17.587Z,8.70
2022-10-01T01:35:52.053Z,8.70
2022-10-01T01:38:24.262Z,8.75
2022-10-01T01:40:56.259Z,8.82
2022-10-01T01:43:31.266Z,8.93
2022-10-01T01:46:02.514Z,9.07
2022-10-01T01:48:32.021Z,9.21
2022-10-01T01:51:05.657Z,9.31
2022-10-01T01:53:34.517Z,9.49
2022-10-01T01:56:02.780Z,9.59
2022-10-01T01:58:34.334Z,9.66
2022-10-01T02:01:03.211Z,9.67
2022-10-01T02:03:34.713Z,9.71
2022-10-01T02:06:14.360Z,9.75
2022-10-01T02:08:49.664Z,9.80
2022-10-01T02:11:24.929Z,9.77
2022-10-01T02:14:09.046Z,9.75
2022-10-01T02:16:49.835Z,9.72
2022-10-01T02:19:25.726Z,9.73
2022-10-01T02:22:01.158Z,9.70
2022-10-01T02:24:36.059Z,9.60
2022-10-01T02:27:07.742Z,9.56
2022-10-01T02:29:38.830Z,9.56
2022-10-01T02:32:07.397Z,9.38
2022-10-01T02:34:35.955Z,9.38
2022-10-01T02:37:07.280Z,9.35
2022-10-01T02:39:37.329Z,9.37
2022-10-01T02:42:07.453Z,9.41
2022-10-01T02:44:42.862Z,9.30
2022-10-01T02:47:18.593Z,9.13
2022-10-01T02:49:46.663Z,9.06
2022-10-01T02:52:31.185Z,9.02
2022-10-01T02:55:02.787Z,9.00
2022-10-01T02:57:29.776Z,8.98
2022-10-01T03:00:01.583Z,8.99
2022-10-01T03:02:31.560Z,8.99
2022-10-01T03:05:00.484Z,8.95
2022-10-01T03:07:30.011Z,8.96
2022-10-01T03:09:58.384Z,9.00
2022-10-01T03:12:26.109Z,9.08
2022-10-01T03:14:54.263Z,9.19
2022-10-01T03:17:23.269Z,9.23
2022-10-01T03:19:50.951Z,9.26
2022-10-01T03:22:22.531Z,9.24
2022-10-01T03:24:50.489Z,9.25
2022-10-01T03:27:18.605Z,9.26
2022-10-01T03:29:46.782Z,9.26
2022-10-01T03:32:15.517Z,9.30
2022-10-01T03:34:44.878Z,9.31
2022-10-01T03:37:12.515Z,9.36
2022-10-01T03:39:40.784Z,9.39
2022-10-01T03:42:08.474Z,9.32
2022-10-01T03:44:36.170Z,9.32
2022-10-01T03:47:03.943Z,9.30
2022-10-01T03:49:31.902Z,9.24
2022-10-01T03:52:05.336Z,9.23
2022-10-01T03:54:33.519Z,9.15
2022-10-01T03:57:01.350Z,8.97
2022-10-01T03:59:29.597Z,8.88
2022-10-01T04:01:57.387Z,8.64
2022-10-01T04:04:25.461Z,8.70
2022-10-01T04:06:53.134Z,8.63
2022-10-01T04:09:22.606Z,8.56
2022-10-01T04:11:50.815Z,8.64
2022-10-01T04:14:18.459Z,8.56
2022-10-01T04:16:46.132Z,8.45
2022-10-01T04:19:13.825Z,8.38
2022-10-01T04:21:42.128Z,8.58
2022-10-01T04:24:09.778Z,8.82
2022-10-01T04:26:39.146Z,8.91
2022-10-01T04:29:06.950Z,9.21
2022-10-01T04:31:36.187Z,9.34
2022-10-01T04:34:04.614Z,9.43
2022-10-01T04:36:32.703Z,9.48
2022-10-01T04:39:02.430Z,9.53
2022-10-01T04:41:32.173Z,9.50
2022-10-01T04:44:01.650Z,9.62
2022-10-01T04:46:30.674Z,9.63
2022-10-01T04:48:58.903Z,9.69
2022-10-01T04:51:26.637Z,9.78
2022-10-01T04:53:54.377Z,9.77
2022-10-01T04:56:22.055Z,9.81
2022-10-01T04:58:49.709Z,9.81
2022-10-01T05:01:19.062Z,9.83
2022-10-01T05:03:47.358Z,9.84
2022-10-01T05:06:15.413Z,9.84
2022-10-01T05:08:43.405Z,9.85
2022-10-01T05:11:11.474Z,9.85
2022-10-01T05:13:39.118Z,9.81
2022-10-01T05:16:07.631Z,9.87
2022-10-01T05:18:36.703Z,9.90
2022-10-01T05:21:06.511Z,9.91
2022-10-01T05:23:34.395Z,10.02
2022-10-01T05:26:04.431Z,10.02
2022-10-01T05:28:32.368Z,9.98
2022-10-01T05:31:01.850Z,9.98
2022-10-01T05:33:29.902Z,10.03
2022-10-01T05:35:59.244Z,10.08
2022-10-01T05:38:27.020Z,10.11
2022-10-01T05:40:54.698Z,10.15
2022-10-01T05:43:22.366Z,10.22
2022-10-01T05:45:51.226Z,10.28
2022-10-01T05:48:19.006Z,10.29
2022-10-01T05:50:46.673Z,10.36
2022-10-01T05:53:38.366Z,10.32
2022-10-01T05:56:07.462Z,10.33
2022-10-01T05:58:35.299Z,10.33
2022-10-01T06:01:04.082Z,10.34
2022-10-01T06:03:31.822Z,10.38
2022-10-01T06:05:59.481Z,10.38
2022-10-01T06:08:28.618Z,10.41
2022-10-01T06:11:01.737Z,10.39
2022-10-01T06:13:29.822Z,10.39
2022-10-01T06:15:58.131Z,10.40
2022-10-01T06:18:27.254Z,10.46
2022-10-01T06:20:55.635Z,10.45
2022-10-01T06:23:23.335Z,10.47
2022-10-01T06:25:51.321Z,10.49
2022-10-01T06:28:20.387Z,10.52
2022-10-01T06:30:50.086Z,10.53
2022-10-01T06:33:18.671Z,10.51
2022-10-01T06:35:48.290Z,10.58
2022-10-01T06:38:17.706Z,10.65
2022-10-01T06:40:45.790Z,10.67
2022-10-01T06:43:13.441Z,10.68
2022-10-01T06:45:43.232Z,10.75
2022-10-01T06:48:14.615Z,10.77
2022-10-01T06:50:44.307Z,10.79
2022-10-01T06:53:11.936Z,10.79
2022-10-01T06:55:40.660Z,10.86
2022-10-01T06:58:11.430Z,10.84
2022-10-01T07:00:40.405Z,11.02
2022-10-01T07:03:14.032Z,10.85
2022-10-01T07:05:42.414Z,10.90
2022-10-01T07:08:10.372Z,11.00
2022-10-01T07:10:38.347Z,10.91
2022-10-01T07:13:09.929Z,11.09
2022-10-01T07:15:38.765Z,11.06
2022-10-01T07:18:09.316Z,11.11
2022-10-01T07:20:40.662Z,11.19
2022-10-01T07:23:11.019Z,11.25
2022-10-01T07:25:39.936Z,11.08
2022-10-01T07:28:15.976Z,11.22
2022-10-01T07:30:44.707Z,11.24
2022-10-01T07:33:13.151Z,11.30
2022-10-01T07:35:42.264Z,11.19
2022-10-01T07:38:10.198Z,11.33
2022-10-01T07:40:38.587Z,11.29
2022-10-01T07:43:06.266Z,11.39
2022-10-01T07:45:34.203Z,11.43
2022-10-01T07:48:04.198Z,11.28
2022-10-01T07:50:31.919Z,11.47
2022-10-01T07:53:01.058Z,11.46
2022-10-01T07:55:30.716Z,11.56
2022-10-01T07:58:01.805Z,11.45
2022-10-01T08:00:31.216Z,11.59
2022-10-01T08:02:58.848Z,11.68
2022-10-01T08:05:29.337Z,11.66
2022-10-01T08:08:01.430Z,11.81
2022-10-01T08:10:30.324Z,11.98
2022-10-01T08:13:01.935Z,12.00
2022-10-01T08:15:29.790Z,11.99
2022-10-01T08:17:57.493Z,12.07
2022-10-01T08:20:25.450Z,12.05
2022-10-01T08:22:53.869Z,11.95
2022-10-01T08:25:22.929Z,12.14
2022-10-01T08:27:50.638Z,12.10
2022-10-01T08:30:18.934Z,12.02
2022-10-01T08:32:46.618Z,12.18
2022-10-01T08:35:14.411Z,12.06
2022-10-01T08:37:42.107Z,12.15
2022-10-01T08:40:11.053Z,11.99
2022-10-01T08:42:48.613Z,12.04
2022-10-01T08:45:22.672Z,11.98
2022-10-01T08:47:57.445Z,11.92
2022-10-01T08:50:36.753Z,11.77
2022-10-01T08:53:09.074Z,11.89
2022-10-01T08:55:37.778Z,11.80
2022-10-01T08:58:11.331Z,11.81
2022-10-01T09:00:43.008Z,12.00
2022-10-01T09:03:16.366Z,11.59
2022-10-01T09:05:57.131Z,11.38
2022-10-01T09:08:48.017Z,11.30
2022-10-01T09:11:29.458Z,11.27
2022-10-01T09:14:11.054Z,11.39
2022-10-01T09:16:48.813Z,11.09
2022-10-01T09:19:35.364Z,11.08
2022-10-01T09:22:11.642Z,11.27
2022-10-01T09:24:44.933Z,11.34
2022-10-01T09:27:16.338Z,11.20
2022-10-01T09:29:50.336Z,11.13
2022-10-01T09:32:22.694Z,11.34
2022-10-01T09:34:50.583Z,11.11
2022-10-01T09:37:27.780Z,11.04
2022-10-01T09:40:12.659Z,11.08
2022-10-01T09:42:40.590Z,11.14
2022-10-01T09:45:13.210Z,11.11
2022-10-01T09:47:44.315Z,11.00
2022-10-01T09:50:16.781Z,11.02
2022-10-01T09:52:48.719Z,10.99
2022-10-01T09:55:32.275Z,10.95
2022-10-01T09:58:05.280Z,10.86
2022-10-01T10:00:34.806Z,10.93
2022-10-01T10:03:02.577Z,10.90
2022-10-01T10:05:41.999Z,10.92
2022-10-01T10:08:14.711Z,10.87
2022-10-01T10:10:51.883Z,10.95
2022-10-01T10:13:26.257Z,10.97
2022-10-01T10:15:58.676Z,11.08
2022-10-01T10:18:30.971Z,10.99
2022-10-01T10:21:00.505Z,11.07
2022-10-01T10:23:29.256Z,10.95
2022-10-01T10:26:00.835Z,10.94
2022-10-01T10:28:43.267Z,11.17
2022-10-01T10:31:17.107Z,11.20
2022-10-01T10:33:55.500Z,10.99
2022-10-01T10:36:29.121Z,10.90
2022-10-01T10:38:58.587Z,10.79
2022-10-01T10:41:28.969Z,11.04
2022-10-01T10:44:00.644Z,11.15
2022-10-01T10:46:33.887Z,11.03
2022-10-01T10:49:10.657Z,10.89
2022-10-01T10:51:45.806Z,10.89
2022-10-01T10:54:22.418Z,11.00
2022-10-01T10:56:54.961Z,10.85
2022-10-01T10:59:23.051Z,11.06
2022-10-01T11:01:53.109Z,11.03
2022-10-01T11:04:29.196Z,11.28
2022-10-01T11:06:59.095Z,10.98
2022-10-01T11:09:34.817Z,11.16
2022-10-01T11:12:15.084Z,11.16
2022-10-01T11:15:09.170Z,10.96
2022-10-01T11:17:58.733Z,10.89
2022-10-01T11:20:38.163Z,10.93
2022-10-01T11:23:34.067Z,10.89
2022-10-01T11:26:18.217Z,10.80
2022-10-01T11:29:01.527Z,10.95
2022-10-01T11:31:39.180Z,10.97
2022-10-01T11:34:25.680Z,10.94
2022-10-01T11:37:02.997Z,10.91
2022-10-01T11:39:33.573Z,10.75
2022-10-01T11:42:04.557Z,10.92
2022-10-01T11:44:37.069Z,10.79
2022-10-01T11:47:10.903Z,10.90
2022-10-01T11:49:48.694Z,10.85
2022-10-01T11:52:24.609Z,10.98
2022-10-01T11:55:24.678Z,10.76
2022-10-01T11:58:16.065Z,10.83
2022-10-01T12:00:47.871Z,11.01
2022-10-01T12:03:24.549Z,11.03
2022-10-01T12:05:56.682Z,11.21
2022-10-01T12:08:28.625Z,11.07
2022-10-01T12:11:01.936Z,11.31
2022-10-01T12:13:34.135Z,11.29
2022-10-01T12:16:14.531Z,11.26
2022-10-01T12:18:52.406Z,11.18
2022-10-01T12:21:28.386Z,11.23
2022-10-01T12:24:02.456Z,11.39
2022-10-01T12:26:43.089Z,11.35
2022-10-01T12:29:18.499Z,11.29
2022-10-01T12:31:52.438Z,11.45
2022-10-01T12:34:29.482Z,11.37
2022-10-01T12:37:10.675Z,11.32
2022-10-01T12:39:49.775Z,11.30
2022-10-01T12:42:33.531Z,10.99
2022-10-01T12:45:12.647Z,11.08
2022-10-01T12:47:48.507Z,11.02
2022-10-01T12:50:27.638Z,10.94
2022-10-01T12:53:14.622Z,11.04
2022-10-01T12:55:56.846Z,11.06
2022-10-01T12:58:57.731Z,10.99
2022-10-01T13:01:42.872Z,10.97
2022-10-01T13:04:33.042Z,11.04
2022-10-01T13:07:32.175Z,11.00
2022-10-01T13:10:13.526Z,11.19
2022-10-01T13:12:57.587Z,11.25
2022-10-01T13:15:31.759Z,11.12
2022-10-01T13:18:07.658Z,11.12
2022-10-01T13:20:41.728Z,11.32
2022-10-01T13:23:18.620Z,11.23
2022-10-01T13:25:58.469Z,11.16
2022-10-01T13:28:35.235Z,11.26
2022-10-01T13:31:12.831Z,11.43
2022-10-01T13:33:41.630Z,11.43
2022-10-01T13:36:14.030Z,11.36
2022-10-01T13:38:43.833Z,11.46
2022-10-01T13:41:22.193Z,11.58
2022-10-01T13:43:56.763Z,11.54
2022-10-01T13:46:28.035Z,11.55
2022-10-01T13:48:57.182Z,11.73
2022-10-01T13:51:36.313Z,11.81
2022-10-01T13:54:07.858Z,11.81
2022-10-01T13:56:39.363Z,11.71
2022-10-01T13:59:31.507Z,11.78
2022-10-01T14:01:59.847Z,11.79
2022-10-01T14:04:37.171Z,11.91
2022-10-01T14:07:15.910Z,11.92
2022-10-01T14:09:46.486Z,11.99
2022-10-01T14:12:39.366Z,12.02
2022-10-01T14:15:34.757Z,12.06
2022-10-01T14:18:07.691Z,12.23
2022-10-01T14:20:50.794Z,12.09
2022-10-01T14:23:27.338Z,12.09
2022-10-01T14:26:00.374Z,11.99
2022-10-01T14:28:45.442Z,12.10
2022-10-01T14:31:19.092Z,12.23
2022-10-01T14:34:05.822Z,12.18
2022-10-01T14:36:35.547Z,12.17
2022-10-01T14:39:06.690Z,12.03
2022-10-01T14:41:35.884Z,12.24
2022-10-01T14:44:20.439Z,12.19
2022-10-01T14:46:48.611Z,12.20
2022-10-01T14:49:26.284Z,12.31
2022-10-01T14:51:59.550Z,12.20
2022-10-01T14:54:29.542Z,12.12
2022-10-01T14:56:57.813Z,12.18
2022-10-01T14:59:35.657Z,12.10
2022-10-01T15:02:17.287Z,12.34
2022-10-01T15:04:47.743Z,12.17
2022-10-01T15:07:17.114Z,12.13
2022-10-01T15:09:45.971Z,12.20
2022-10-01T15:12:16.185Z,12.24
2022-10-01T15:14:47.142Z,12.12
2022-10-01T15:17:22.692Z,12.15
2022-10-01T15:19:52.771Z,12.14
2022-10-01T15:22:25.350Z,12.11
2022-10-01T15:24:56.971Z,12.13
2022-10-01T15:27:26.000Z,12.11
2022-10-01T15:29:59.249Z,12.34
2022-10-01T15:32:29.051Z,12.27
2022-10-01T15:34:59.128Z,12.17
2022-10-01T15:37:31.323Z,12.23
2022-10-01T15:40:00.504Z,12.18
2022-10-01T15:42:31.751Z,12.35
2022-10-01T15:45:23.047Z,12.35
2022-10-01T15:47:52.731Z,12.40
2022-10-01T15:50:22.389Z,12.37
2022-10-01T15:52:54.556Z,12.45
2022-10-01T15:55:28.521Z,12.54
2022-10-01T15:58:04.042Z,12.36
2022-10-01T16:00:40.203Z,12.11
2022-10-01T16:03:19.621Z,12.42
2022-10-01T16:05:49.431Z,12.22
2022-10-01T16:08:21.905Z,12.35
2022-10-01T16:11:10.103Z,12.30
2022-10-01T16:13:39.826Z,12.34
2022-10-01T16:16:24.154Z,12.40
2022-10-01T16:18:59.052Z,12.26
2022-10-01T16:21:27.416Z,12.25
2022-10-01T16:23:55.400Z,12.31
2022-10-01T16:26:36.938Z,12.27
2022-10-01T16:29:08.206Z,12.25
2022-10-01T16:31:38.851Z,12.22
2022-10-01T16:34:12.831Z,12.30
2022-10-01T16:36:41.111Z,12.04
2022-10-01T16:39:08.814Z,12.40
2022-10-01T16:41:37.110Z,12.22
2022-10-01T16:44:06.356Z,12.22
2022-10-01T16:46:34.490Z,12.19
2022-10-01T16:49:10.465Z,12.26
2022-10-01T16:51:40.255Z,12.22
2022-10-01T16:54:17.495Z,12.21
2022-10-01T16:56:45.206Z,12.28
2022-10-01T16:59:13.083Z,12.19
2022-10-01T17:01:41.800Z,12.20
2022-10-01T17:04:13.343Z,12.13
2022-10-01T17:06:41.317Z,12.20
2022-10-01T17:09:09.707Z,12.37
2022-10-01T17:11:38.757Z,12.27
2022-10-01T17:14:08.115Z,12.12
2022-10-01T17:16:36.399Z,12.25
2022-10-01T17:19:04.282Z,12.25
2022-10-01T17:21:33.389Z,12.21
2022-10-01T17:24:02.690Z,12.42
2022-10-01T17:26:30.338Z,12.17
2022-10-01T17:28:58.651Z,12.34
2022-10-01T17:31:27.422Z,12.50
2022-10-01T17:33:55.130Z,12.47
2022-10-01T17:36:22.816Z,12.33
2022-10-01T17:38:52.129Z,12.28
2022-10-01T17:41:19.842Z,12.35
2022-10-01T17:43:47.498Z,12.45
2022-10-01T17:46:15.628Z,12.39
2022-10-01T17:48:43.327Z,12.35
2022-10-01T17:51:13.488Z,12.39
2022-10-01T17:53:42.769Z,12.51
2022-10-01T17:56:14.745Z,12.46
2022-10-01T17:58:45.336Z,12.41
2022-10-01T18:01:16.253Z,12.31
2022-10-01T18:03:44.228Z,12.37
2022-10-01T18:06:15.920Z,12.45
2022-10-01T18:08:55.092Z,12.38
2022-10-01T18:11:26.662Z,12.48
2022-10-01T18:13:54.444Z,12.43
2022-10-01T18:16:23.172Z,12.39
2022-10-01T18:21:44.485Z,12.48
2022-10-01T18:24:12.205Z,12.47
2022-10-01T18:26:41.209Z,12.39
2022-10-01T18:29:09.484Z,12.48
2022-10-01T18:31:38.474Z,12.55
2022-10-01T18:34:16.090Z,12.47
2022-10-01T18:36:53.870Z,12.36
2022-10-01T18:39:27.795Z,12.46
2022-10-01T18:41:58.291Z,12.44
2022-10-01T18:44:27.004Z,12.47
2022-10-01T18:47:08.421Z,12.45
2022-10-01T18:50:00.861Z,12.44
2022-10-01T18:52:39.399Z,12.46
2022-10-01T18:55:32.973Z,12.59
2022-10-01T18:58:19.778Z,12.44
2022-10-01T19:00:57.263Z,12.37
2022-10-01T19:03:43.729Z,12.52
2022-10-01T19:06:40.515Z,12.42
2022-10-01T19:09:23.570Z,12.52
2022-10-01T19:12:00.591Z,12.64
2022-10-01T19:14:42.283Z,12.43
2022-10-01T19:17:21.574Z,12.48
2022-10-01T19:20:05.259Z,12.43
2022-10-01T19:22:47.558Z,12.52
2022-10-01T19:25:23.133Z,12.54
2022-10-01T19:28:03.971Z,12.56
2022-10-01T19:30:41.457Z,12.52
2022-10-01T19:33:11.593Z,12.63
2022-10-01T19:35:41.642Z,12.45
2022-10-01T19:38:16.768Z,12.53
2022-10-01T19:40:50.417Z,12.42
2022-10-01T19:43:22.505Z,12.41
2022-10-01T19:45:57.752Z,12.51
2022-10-01T19:48:32.007Z,12.55
2022-10-01T19:51:07.802Z,12.54
2022-10-01T19:53:37.309Z,12.57
2022-10-01T19:56:06.782Z,12.44
2022-10-01T19:58:34.652Z,12.52
2022-10-01T20:01:05.373Z,12.47
2022-10-01T20:03:39.042Z,12.45
2022-10-01T20:06:15.050Z,12.50
2022-10-01T20:08:47.431Z,12.50
2022-10-01T20:11:21.151Z,12.58
2022-10-01T20:14:02.273Z,12.63
2022-10-01T20:16:40.690Z,12.69
2022-10-01T20:19:20.217Z,12.64
2022-10-01T20:22:01.648Z,12.52
2022-10-01T20:24:49.140Z,12.55
2022-10-01T20:27:30.298Z,12.67
2022-10-01T20:30:05.646Z,12.52
2022-10-01T20:32:40.560Z,12.58
2022-10-01T20:35:20.984Z,12.58
2022-10-01T20:38:00.032Z,12.52
2022-10-01T20:40:30.966Z,12.64
2022-10-01T20:43:04.455Z,12.62
2022-10-01T20:45:35.281Z,12.61
2022-10-01T20:48:12.204Z,12.59
2022-10-01T20:50:44.745Z,12.57
2022-10-01T20:53:24.844Z,12.66
2022-10-01T20:55:57.137Z,12.64
2022-10-01T20:58:29.266Z,12.70
2022-10-01T21:01:05.208Z,12.61
2022-10-01T21:03:37.270Z,12.65
2022-10-01T21:06:12.541Z,12.67
2022-10-01T21:08:48.315Z,12.65
2022-10-01T21:11:23.258Z,12.58
2022-10-01T21:13:58.614Z,12.69
2022-10-01T21:16:46.222Z,12.64
2022-10-01T21:19:31.506Z,12.54
2022-10-01T21:22:12.979Z,12.57
2022-10-01T21:24:54.807Z,12.64
2022-10-01T21:27:46.879Z,12.75
2022-10-01T21:30:17.474Z,12.68
2022-10-01T21:33:05.313Z,12.51
2022-10-01T21:35:45.318Z,12.67
2022-10-01T21:38:28.143Z,12.73
2022-10-01T21:41:19.890Z,12.65
2022-10-01T21:44:01.852Z,12.69
2022-10-01T21:46:38.011Z,12.62
2022-10-01T21:49:10.642Z,12.80
2022-10-01T21:51:53.016Z,12.54
2022-10-01T21:55:00.655Z,12.53
2022-10-01T21:57:44.062Z,12.56
2022-10-01T22:00:19.028Z,12.54
2022-10-01T22:03:06.525Z,12.48
2022-10-01T22:05:40.506Z,12.56
2022-10-01T22:08:30.681Z,12.58
2022-10-01T22:11:03.162Z,12.67
2022-10-01T22:13:35.666Z,12.49
2022-10-01T22:16:07.592Z,12.47
2022-10-01T22:18:41.106Z,12.51
2022-10-01T22:21:13.153Z,12.58
2022-10-01T22:23:47.550Z,12.65
2022-10-01T22:26:19.223Z,12.59
2022-10-01T22:28:51.261Z,12.59
2022-10-01T22:31:23.619Z,12.51
2022-10-01T22:33:56.531Z,12.47
2022-10-01T22:36:30.437Z,12.62
2022-10-01T22:39:04.189Z,12.89
2022-10-01T22:41:37.323Z,12.64
2022-10-01T22:44:14.793Z,12.57
2022-10-01T22:47:08.084Z,12.71
2022-10-01T22:49:50.306Z,12.66
2022-10-01T22:52:28.437Z,12.84
2022-10-01T22:55:10.439Z,12.74
2022-10-01T22:57:52.140Z,12.74
2022-10-01T23:00:21.244Z,12.93
2022-10-01T23:03:04.887Z,12.82
2022-10-01T23:05:45.877Z,13.00
2022-10-01T23:08:24.661Z,12.94
2022-10-01T23:11:05.726Z,12.89
2022-10-01T23:13:40.469Z,12.88
2022-10-01T23:16:16.727Z,12.73
2022-10-01T23:18:52.485Z,12.81
2022-10-01T23:21:32.566Z,12.89
2022-10-01T23:24:10.191Z,13.06
2022-10-01T23:26:47.571Z,12.96
2022-10-01T23:29:31.110Z,12.94
2022-10-01T23:32:08.245Z,13.03
2022-10-01T23:34:47.797Z,13.22
2022-10-01T23:37:30.907Z,13.23
2022-10-01T23:40:02.594Z,12.99
2022-10-01T23:42:43.233Z,12.94
2022-10-01T23:45:25.908Z,13.06
2022-10-01T23:48:01.097Z,13.18
2022-10-01T23:50:33.971Z,12.99
2022-10-01T23:53:14.303Z,13.14
2022-10-01T23:56:06.247Z,13.23
2022-10-01T23:58:43.499Z,13.35
